Ashkum, IL

4:09 AM CDT on October 31, 2014 (GMT -0500)
North Watseka | Change Station
CLOSE
Current Station
Personal Weather Station
Location: Watseka, IL
Elevation: 636 ft
Nearby Weather Stations
Active Advisory: Wind Advisory

Elev 636 ft 40.82 °N, 87.75 °W | Updated 12 minutes ago

Overcast
Overcast
43.8 °F
Feels Like 42 °F
N
4.0
Wind Variable Wind from WNW

Today
High -- | Low -- °F
--% Chance of Precip.
Yesterday
High -- | Low -- °F
Precip. -- in
7:21 AM 5:48 PM
First Quarter, 53% visible
Pressure 30.03 in
Visibility 10.0 miles
Clouds Overcast 4100 ft
Windchill 42 °F
Dew Point 41 °F
Humidity 89%
Rainfall 0.00 in
Snow Depth Not available.
UV 0 out of 12
Pollen .10 out of 12
Air Quality Not available.
Flu Activity Not available.
METAR KIKK 310855Z AUTO 29006KT 10SM -RA OVC041 07/05 A3003 RMK AO2 T00680046

More Conditions Fewer Conditions

Pressure 30.03 in
Visibility 10.0 miles
Clouds Overcast 4100 ft
Windchill 42 °F
Dew Point 41 °F
Humidity 89%
Rainfall 0.00 in
Snow Depth Not available.
UV 0 out of 12
Pollen .10 out of 12
Air Quality Not available.
Flu Activity Not available.
METAR KIKK 310855Z AUTO 29006KT 10SM -RA OVC041 07/05 A3003 RMK AO2 T00680046

More Conditions Fewer Conditions

10-Day Weather Forecast

Almanac

Astronomy

Oct. 31, 2014 Rise Set
Actual Time
Civil Twilight
Nautical Twilight
Astronomical Twilight
Moon
Length of Visible Light
Length of Day
Tomorrow will be .
, % of the Moon is Illuminated

Today's Extremes

State Highs State Lows

Community

WunderPhotos

Upload Photos

1,766,573 photos uploaded!

WunderBlogs® & News

Nearby

Air Quality

  Air Quality AQ Index Pollutant
Not available.

Snow Depth

Station Depth Elevation

Earthquake Activity

City Distance Mag. Time & Date
Minimum magnitude displayed is 2.5.

Coastal Water Temperatures

Place Temperature

Nearby Weather Stations